Wetterstation Vordersexau
Wetterdaten: April 2011
Datum Temp. A. Feuchte A. Luftdruck Regen Wind Richtung Taupunkt Windchill Windben
01.04.2011 16,7 C 71 % 1022,8 hPa 0,7 l/m 9,4 km/h SW 10,8 C 14,5 C 5,2 km/h
02.04.2011 17,0 C 65 % 1015,7 hPa 0,0 l/m 0,9 km/h NO 9,0 C 17,0 C 0,5 km/h
03.04.2011 17,0 C 67 % 1011,3 hPa 2,1 l/m 5,2 km/h SO 10,0 C 16,5 C 2,9 km/h
04.04.2011 12,4 C 75 % 1020,0 hPa 16,0 l/m 0,4 km/h W-NW 7,7 C 12,4 C 0,2 km/h
05.04.2011 13,1 C 68 % 1025,5 hPa 0,0 l/m 0,9 km/h O-NO 6,7 C 13,1 C 0,5 km/h
06.04.2011 16,5 C 66 % 1026,9 hPa 0,0 l/m 2,9 km/h SO 9,4 C 16,1 C 1,6 km/h
07.04.2011 18,5 C 64 % 1023,6 hPa 0,0 l/m 3,1 km/h O-NO 10,4 C 18,3 C 1,7 km/h
08.04.2011 15,6 C 64 % 1021,8 hPa 0,0 l/m 1,2 km/h SO 7,8 C 15,5 C 0,7 km/h
09.04.2011 15,6 C 62 % 1020,0 hPa 0,0 l/m 1,8 km/h O-NO 7,1 C 15,5 C 1,0 km/h
10.04.2011 14,5 C 61 % 1019,6 hPa 0,0 l/m 2,3 km/h NO 5,6 C 14,3 C 1,3 km/h
11.04.2011 15,9 C 58 % 1019,3 hPa 0,0 l/m 0,7 km/h W-NW 6,1 C 15,8 C 0,4 km/h
12.04.2011 10,6 C 71 % 1021,2 hPa 0,0 l/m 2,9 km/h N-NO 5,3 C 10,0 C 1,6 km/h
13.04.2011 8,3 C 64 % 1022,1 hPa 0,0 l/m 1,6 km/h SO 1,0 C 8,1 C 0,9 km/h
14.04.2011 9,9 C 58 % 1015,4 hPa 0,0 l/m 0,4 km/h SO 1,3 C 9,9 C 0,2 km/h
15.04.2011 9,7 C 57 % 1015,7 hPa 0,0 l/m 2,3 km/h NO 0,3 C 9,2 C 1,3 km/h
16.04.2011 11,3 C 57 % 1018,0 hPa 0,0 l/m 3,0 km/h N-NO 1,5 C 10,8 C 1,7 km/h
17.04.2011 12,6 C 54 % 1019,3 hPa 0,0 l/m 1,9 km/h SO 1,9 C 12,4 C 1,1 km/h
18.04.2011 14,7 C 52 % 1017,2 hPa 0,0 l/m 0,6 km/h N-NO 3,3 C 14,7 C 0,3 km/h
19.04.2011 15,6 C 55 % 1013,3 hPa 0,0 l/m 1,9 km/h O-NO 5,0 C 15,5 C 1,1 km/h
20.04.2011 16,2 C 55 % 1013,2 hPa 0,0 l/m 1,3 km/h NO 6,0 C 16,2 C 0,7 km/h
21.04.2011 17,6 C 57 % 1012,7 hPa 0,0 l/m 1,4 km/h W 7,8 C 17,5 C 0,8 km/h
22.04.2011 18,0 C 57 % 1007,9 hPa 0,0 l/m 2,0 km/h NO 7,9 C 17,9 C 1,1 km/h
23.04.2011 17,6 C 57 % 1008,1 hPa 0,0 l/m 1,8 km/h O-NO 7,9 C 17,6 C 1,0 km/h
24.04.2011 16,2 C 70 % 1013,4 hPa 0,0 l/m 2,9 km/h SO 10,2 C 15,9 C 1,6 km/h
25.04.2011 17,9 C 57 % 1014,0 hPa 0,0 l/m 3,1 km/h N-NO 7,3 C 17,7 C 1,7 km/h
26.04.2011 15,8 C 53 % 1014,4 hPa 0,0 l/m 1,6 km/h N-NO 5,2 C 15,6 C 0,9 km/h
27.04.2011 13,8 C 64 % 1012,9 hPa 0,0 l/m 1,9 km/h N-NO 6,6 C 13,6 C 1,0 km/h
28.04.2011 13,3 C 68 % 1010,0 hPa 0,0 l/m 1,1 km/h SO 6,9 C 13,2 C 0,6 km/h
29.04.2011 12,6 C 79 % 1006,2 hPa 2,5 l/m 1,5 km/h NO 8,8 C 12,5 C 0,8 km/h
30.04.2011 13,3 C 78 % 1003,8 hPa 3,6 l/m 1,9 km/h SO 9,4 C 13,0 C 1,0 km/h
Min-Datum 15.04.11 18.04.11 30.04.11 5 Tage 01.04.11 - 16.04.11 15.04.11 01.04.11
Min-Zeit 07:30 17:30 18:30 - 00:30 - 04:30 07:30 00:30
Minimum -0,6 C 20 % 1002,2 hPa - 0,0 km/h - -3,0 C -0,6 C 0,0 km/h
Max-Datum 02.04.11 04.04.11 06.04.11 04.04.11 03.04.11 - 07.04.11 02.04.11 03.04.11
Max-Zeit 17:30 08:30 10:30 06:30 14:30 - 09:30 17:30 14:30
Maximum 34,1 C 88 % 1028,3 hPa 16,0 l/m 29,8 km/h
SO
- 14,2 C 34,1 C 16,6 km/h
SO
Durchschnitt 14,6 C 63 % 1016,2 hPa #24,9 l/m 2,1 km/h SO 6,5 C 14,3 C 1,2 km/h

Durchschnitt Minimum Temp.5,3 C
Durchschnitt Maximum Temp.26,8 C
www.sexauwetter.de